Time;durP1;ratioP1;P1;durP2;ratioP2;P2;SDS_P1;SDS_P2;PMS_P1;PMS_P2;Temp;Humidity;BMP_temperature;BMP_pressure;BME280_temperature;BME280_humidity;BME280_pressure;Samples;Min_cycle;Max_cycle;Signal;HPM_P1;HPM_P2
2021/04/24 00:01:56;;;;;;;6.50;2.05;;;5.50;99.90;;;;;;5076114;28;20032;-74
2021/04/24 00:04:22;;;;;;;11.32;2.85;;;5.50;99.90;;;;;;5093967;28;20028;-73
2021/04/24 00:06:48;;;;;;;6.18;1.83;;;5.50;99.90;;;;;;5075810;28;20036;-73
2021/04/24 00:09:45;;;;;;;6.25;2.25;;;5.40;99.90;;;;;;5076271;28;20473;-73
2021/04/24 00:13:17;;;;;;;16.83;2.58;;;5.40;99.90;;;;;;5084991;28;20039;-73
2021/04/24 00:15:47;;;;;;;7.68;1.42;;;5.30;99.90;;;;;;5072288;28;20039;-73
2021/04/24 00:18:35;;;;;;;6.90;2.15;;;5.30;99.90;;;;;;5097987;28;20024;-73
2021/04/24 00:21:00;;;;;;;15.80;2.85;;;5.20;99.90;;;;;;5098061;28;20022;-73
2021/04/24 00:23:26;;;;;;;8.57;2.70;;;5.20;99.90;;;;;;5079844;28;20028;-73
2021/04/24 00:25:51;;;;;;;10.88;2.97;;;5.10;99.90;;;;;;5079641;28;20118;-73
2021/04/24 00:28:17;;;;;;;7.10;2.53;;;5.10;99.90;;;;;;5097785;28;20020;-74
2021/04/24 00:31:23;;;;;;;9.73;2.17;;;5.10;99.90;;;;;;5097859;28;20059;-72
2021/04/24 00:33:51;;;;;;;8.75;2.17;;;5.10;99.90;;;;;;5079244;28;20028;-73
2021/04/24 00:36:17;;;;;;;8.38;2.28;;;5.00;99.90;;;;;;5079597;28;20020;-73
2021/04/24 00:38:42;;;;;;;8.48;2.05;;;4.90;99.90;;;;;;5110579;22;20089;-74
2021/04/24 00:41:09;;;;;;;7.32;1.80;;;4.90;99.90;;;;;;5079229;28;20430;-73
2021/04/24 00:43:35;;;;;;;7.15;1.75;;;4.80;99.90;;;;;;5079364;28;20069;-73
2021/04/24 00:46:11;;;;;;;8.98;2.90;;;4.80;99.90;;;;;;5097566;28;20111;-74
2021/04/24 00:48:37;;;;;;;6.35;2.00;;;4.70;99.90;;;;;;5097837;28;20077;-74
2021/04/24 00:51:04;;;;;;;6.18;2.00;;;4.60;99.90;;;;;;5092332;23;20373;-74
2021/04/24 00:53:30;;;;;;;7.60;1.75;;;4.50;99.90;;;;;;5079070;28;20388;-73
2021/04/24 00:55:55;;;;;;;10.35;2.33;;;4.40;99.90;;;;;;5097201;28;20016;-73
2021/04/24 00:58:21;;;;;;;8.38;2.83;;;4.30;99.90;;;;;;5096705;28;20031;-74
2021/04/24 01:00:46;;;;;;;8.60;3.10;;;4.30;99.90;;;;;;5078597;28;20017;-73
2021/04/24 01:03:12;;;;;;;9.38;2.55;;;4.30;99.90;;;;;;5096973;28;20028;-74
2021/04/24 01:05:40;;;;;;;8.23;2.50;;;4.20;99.90;;;;;;5109884;22;20091;-74
2021/04/24 01:08:08;;;;;;;8.15;2.38;;;4.20;99.90;;;;;;5096669;28;20434;-73
2021/04/24 01:10:35;;;;;;;9.35;2.47;;;4.10;99.90;;;;;;5097106;28;20024;-73
2021/04/24 01:13:01;;;;;;;10.18;1.98;;;4.00;99.90;;;;;;5078604;28;20049;-74
2021/04/24 01:15:27;;;;;;;11.77;2.65;;;4.00;99.90;;;;;;5096807;28;20038;-73
2021/04/24 01:17:53;;;;;;;10.50;2.25;;;4.00;99.90;;;;;;5097306;28;20036;-73
2021/04/24 01:20:20;;;;;;;9.75;2.45;;;4.00;99.90;;;;;;5096630;28;20070;-73
2021/04/24 01:22:47;;;;;;;8.85;2.83;;;4.00;99.90;;;;;;5096670;28;20114;-73
2021/04/24 01:25:16;;;;;;;10.73;2.53;;;3.90;99.90;;;;;;5078573;28;20051;-73
2021/04/24 01:33:38;;;;;;;7.68;2.40;;;3.90;99.90;;;;;;5096484;28;20526;-74
2021/04/24 01:36:04;;;;;;;11.40;2.38;;;3.80;99.90;;;;;;5096381;28;20020;-74
2021/04/24 01:38:31;;;;;;;13.25;2.38;;;3.70;99.90;;;;;;5096176;28;20028;-73
2021/04/24 01:40:57;;;;;;;11.95;3.55;;;3.70;99.90;;;;;;5091346;22;20143;-74
2021/04/24 01:43:23;;;;;;;9.82;2.30;;;3.60;99.90;;;;;;5090611;22;20071;-74
2021/04/24 01:45:48;;;;;;;9.68;2.35;;;3.60;99.90;;;;;;5095903;28;20043;-75
2021/04/24 01:48:14;;;;;;;11.85;3.45;;;3.60;99.90;;;;;;5077640;28;20028;-75
2021/04/24 01:50:45;;;;;;;9.13;3.13;;;3.50;99.90;;;;;;5095781;28;20025;-75
2021/04/24 01:53:22;;;;;;;9.25;2.60;;;3.50;99.90;;;;;;5077867;28;20012;-75
2021/04/24 01:55:49;;;;;;;12.52;4.10;;;3.50;99.90;;;;;;5077518;28;20469;-75
2021/04/24 01:58:20;;;;;;;8.10;3.05;;;3.40;99.90;;;;;;5135932;22;20048;-74
2021/04/24 02:00:56;;;;;;;12.52;3.13;;;3.40;99.90;;;;;;5098920;28;20077;-74
2021/04/24 02:03:22;;;;;;;10.55;2.97;;;3.40;99.90;;;;;;5078313;28;20028;-73
2021/04/24 02:05:49;;;;;;;8.07;2.28;;;3.40;99.90;;;;;;5095901;28;20021;-74
2021/04/24 02:08:18;;;;;;;16.25;2.72;;;3.40;99.90;;;;;;5095744;28;20032;-74
2021/04/24 02:10:47;;;;;;;7.80;2.92;;;3.30;99.90;;;;;;5090906;22;20054;-74
2021/04/24 02:13:17;;;;;;;;;;;3.30;99.90;;;;;;5097012;28;20025;-75
2021/04/24 02:15:44;;;;;;;13.80;2.85;;;3.30;99.90;;;;;;5096347;28;19910;-74
2021/04/24 02:18:10;;;;;;;13.35;2.45;;;3.30;99.90;;;;;;5096167;28;20416;-74
2021/04/24 02:20:38;;;;;;;8.40;2.80;;;3.30;99.90;;;;;;5096270;28;20099;-74
2021/04/24 02:23:05;;;;;;;10.07;2.95;;;3.20;99.90;;;;;;5096135;28;20054;-73
2021/04/24 02:25:30;;;;;;;14.43;2.95;;;3.20;99.90;;;;;;5077988;28;20028;-74
2021/04/24 02:27:56;;;;;;;15.20;2.65;;;3.20;99.90;;;;;;5095901;28;20032;-73
2021/04/24 02:30:22;;;;;;;7.93;2.95;;;3.30;99.90;;;;;;5096147;28;20074;-73
2021/04/24 02:32:48;;;;;;;14.38;3.40;;;3.30;99.90;;;;;;5077978;28;20107;-73
2021/04/24 02:35:18;;;;;;;10.75;3.33;;;3.20;99.90;;;;;;5096359;28;20103;-75
2021/04/24 02:37:44;;;;;;;9.32;2.20;;;3.20;99.90;;;;;;5095752;28;20028;-74
2021/04/24 02:40:22;;;;;;;10.93;2.72;;;3.20;99.90;;;;;;5108128;22;20468;-73
2021/04/24 02:42:48;;;;;;;14.52;2.90;;;3.20;99.90;;;;;;5096167;28;20028;-73
2021/04/24 02:45:15;;;;;;;9.27;2.85;;;3.10;99.90;;;;;;5077693;28;20480;-74
2021/04/24 02:47:42;;;;;;;12.32;3.67;;;3.10;99.90;;;;;;5095965;28;20043;-74
2021/04/24 02:50:10;;;;;;;11.60;3.15;;;3.10;99.90;;;;;;5077337;28;20048;-74
2021/04/24 02:52:36;;;;;;;8.90;3.22;;;3.00;99.90;;;;;;5095884;28;20056;-74
2021/04/24 02:55:05;;;;;;;10.05;2.70;;;3.00;99.90;;;;;;5096082;28;20399;-72
2021/04/24 02:57:30;;;;;;;8.93;3.05;;;3.00;99.90;;;;;;5077505;28;20028;-73
2021/04/24 02:59:56;;;;;;;10.32;2.92;;;3.00;99.90;;;;;;5096243;28;20035;-74
2021/04/24 03:02:21;;;;;;;9.55;3.13;;;2.90;99.90;;;;;;5077362;28;20430;-74
2021/04/24 03:04:47;;;;;;;12.30;3.85;;;2.90;99.90;;;;;;5095692;28;20039;-74
2021/04/24 03:07:12;;;;;;;14.75;3.25;;;3.00;99.90;;;;;;5095650;28;20020;-74
2021/04/24 03:09:38;;;;;;;9.60;3.45;;;3.00;99.90;;;;;;5095388;28;20017;-74
2021/04/24 03:12:05;;;;;;;13.13;3.10;;;3.00;99.90;;;;;;5077230;28;20023;-74
2021/04/24 03:14:30;;;;;;;9.32;2.78;;;2.90;99.90;;;;;;5095567;28;20023;-74
2021/04/24 03:16:56;;;;;;;15.18;3.78;;;2.90;99.90;;;;;;5095491;28;20024;-74
2021/04/24 03:19:21;;;;;;;15.48;3.13;;;2.90;99.90;;;;;;5095391;28;20024;-73
2021/04/24 03:21:47;;;;;;;13.77;3.30;;;2.80;99.90;;;;;;5095685;28;20027;-74
2021/04/24 03:24:13;;;;;;;13.45;3.47;;;2.80;99.90;;;;;;5077070;28;20024;-74
2021/04/24 03:26:38;;;;;;;11.75;3.47;;;2.80;99.90;;;;;;5095560;28;20020;-73
2021/04/24 03:29:04;;;;;;;10.48;3.10;;;2.70;99.90;;;;;;5077471;28;20019;-73
2021/04/24 03:31:30;;;;;;;11.13;2.67;;;2.70;99.90;;;;;;5077030;28;20476;-74
2021/04/24 03:33:56;;;;;;;10.30;3.20;;;2.70;99.90;;;;;;5095013;28;20028;-74
2021/04/24 03:36:22;;;;;;;12.55;3.80;;;2.60;99.90;;;;;;5095545;28;20027;-74
2021/04/24 03:38:47;;;;;;;9.85;3.33;;;2.60;99.90;;;;;;5077858;28;20043;-74
2021/04/24 03:41:14;;;;;;;12.30;3.85;;;2.60;99.90;;;;;;5095777;28;20028;-74
2021/04/24 03:43:40;;;;;;;14.95;4.32;;;2.60;99.90;;;;;;5095474;28;20023;-74
2021/04/24 03:46:05;;;;;;;15.73;3.90;;;2.60;99.90;;;;;;5095032;28;20026;-74
2021/04/24 03:48:32;;;;;;;11.68;3.63;;;2.50;99.90;;;;;;5094990;28;20103;-74
2021/04/24 03:50:58;;;;;;;13.00;3.15;;;2.50;99.90;;;;;;5078705;28;20016;-74
2021/04/24 03:53:24;;;;;;;11.93;3.25;;;2.50;99.90;;;;;;5101770;28;20022;-74
2021/04/24 03:55:49;;;;;;;13.55;3.47;;;2.40;99.90;;;;;;5101677;28;20438;-74
2021/04/24 03:58:15;;;;;;;11.95;3.40;;;2.40;99.90;;;;;;5101504;28;20070;-74
2021/04/24 04:00:41;;;;;;;16.85;4.72;;;2.40;99.90;;;;;;5101649;28;20056;-74
2021/04/24 04:03:08;;;;;;;11.00;3.05;;;2.30;99.90;;;;;;5101818;28;20098;-74
2021/04/24 04:05:39;;;;;;;12.63;2.83;;;2.30;99.90;;;;;;5083119;28;20058;-74
2021/04/24 04:08:06;;;;;;;8.85;2.53;;;2.30;99.90;;;;;;5100942;28;20023;-74
2021/04/24 04:10:33;;;;;;;13.07;2.97;;;2.30;99.90;;;;;;5082877;28;20065;-73
2021/04/24 04:13:00;;;;;;;14.82;3.55;;;2.30;99.90;;;;;;5083411;28;20059;-74
2021/04/24 04:15:27;;;;;;;14.52;3.33;;;2.30;99.90;;;;;;5083056;28;20396;-74
2021/04/24 04:17:58;;;;;;;17.10;3.72;;;2.30;99.90;;;;;;5101160;28;20095;-74
2021/04/24 04:20:24;;;;;;;16.65;3.90;;;2.30;99.90;;;;;;5113893;22;20362;-74
2021/04/24 04:22:50;;;;;;;11.75;3.45;;;2.30;99.90;;;;;;5082772;28;20028;-74
2021/04/24 04:25:16;;;;;;;14.23;3.75;;;2.30;99.90;;;;;;5101319;28;20020;-73
2021/04/24 04:27:42;;;;;;;15.93;3.63;;;2.30;99.90;;;;;;5113463;22;20063;-75
2021/04/24 04:30:14;;;;;;;11.93;3.53;;;2.30;99.90;;;;;;5101091;28;20028;-73
2021/04/24 04:32:40;;;;;;;11.52;3.67;;;2.30;99.90;;;;;;5100694;28;20028;-73
2021/04/24 04:35:07;;;;;;;10.93;3.85;;;2.20;99.90;;;;;;5101202;28;20498;-74
2021/04/24 04:37:33;;;;;;;11.95;2.90;;;2.20;99.90;;;;;;5100751;28;20053;-74
2021/04/24 04:39:59;;;;;;;10.10;3.05;;;2.10;99.90;;;;;;5101051;28;20490;-73
2021/04/24 04:42:25;;;;;;;13.80;3.40;;;2.10;99.90;;;;;;5100828;28;20418;-73
2021/04/24 04:44:50;;;;;;;10.50;3.22;;;2.10;99.90;;;;;;5100824;28;20024;-74
2021/04/24 04:47:16;;;;;;;14.27;4.07;;;2.10;99.90;;;;;;5100570;28;20036;-75
2021/04/24 04:49:41;;;;;;;11.35;3.28;;;2.10;99.90;;;;;;5100398;28;20016;-75
2021/04/24 04:52:07;;;;;;;10.40;3.63;;;2.10;99.90;;;;;;5100383;28;20024;-75
2021/04/24 04:54:32;;;;;;;11.50;3.53;;;2.10;99.90;;;;;;5100726;28;20016;-75
2021/04/24 04:56:58;;;;;;;13.65;4.47;;;2.20;99.90;;;;;;5100679;28;20054;-74
2021/04/24 04:59:27;;;;;;;13.15;2.67;;;2.20;99.90;;;;;;5100188;28;20036;-75
2021/04/24 05:01:53;;;;;;;9.80;2.53;;;2.20;99.90;;;;;;5100051;28;20028;-75
2021/04/24 05:04:19;;;;;;;11.68;3.67;;;2.30;99.90;;;;;;5096271;28;20082;-75
2021/04/24 05:06:47;;;;;;;13.45;3.65;;;2.40;99.90;;;;;;5097184;28;20419;-75
2021/04/24 05:09:13;;;;;;;10.38;3.13;;;2.40;99.90;;;;;;5097217;28;20027;-75
2021/04/24 05:11:38;;;;;;;16.30;4.30;;;2.60;99.90;;;;;;5097469;28;20024;-75
2021/04/24 05:14:04;;;;;;;10.13;3.22;;;2.70;99.90;;;;;;5096952;28;20028;-75
2021/04/24 05:16:29;;;;;;;16.20;3.28;;;2.80;99.90;;;;;;5096917;28;20024;-75
2021/04/24 05:18:55;;;;;;;14.55;3.90;;;2.90;99.90;;;;;;5097077;28;20067;-75
2021/04/24 05:21:20;;;;;;;13.70;3.85;;;3.00;99.90;;;;;;5078559;28;20123;-74
2021/04/24 05:23:46;;;;;;;13.52;3.63;;;3.20;99.90;;;;;;5079110;28;20025;-74
2021/04/24 05:26:11;;;;;;;12.35;3.53;;;3.20;99.90;;;;;;5110137;22;20044;-74
2021/04/24 05:28:37;;;;;;;12.85;4.13;;;3.40;99.90;;;;;;5078307;28;20082;-74
2021/04/24 05:31:02;;;;;;;10.73;3.08;;;3.50;99.90;;;;;;5078599;28;20028;-74
2021/04/24 05:33:28;;;;;;;14.63;3.83;;;3.60;99.90;;;;;;5096706;28;20075;-74
2021/04/24 05:35:54;;;;;;;10.80;3.60;;;3.80;99.90;;;;;;5078429;28;20063;-74
2021/04/24 05:38:19;;;;;;;14.90;4.13;;;3.90;99.90;;;;;;5077903;28;20066;-74
2021/04/24 05:40:45;;;;;;;12.25;3.50;;;3.90;99.90;;;;;;5078549;28;20032;-74
2021/04/24 05:43:10;;;;;;;14.98;5.13;;;4.00;99.90;;;;;;5078220;28;20027;-74
2021/04/24 05:45:36;;;;;;;16.60;4.00;;;4.10;99.90;;;;;;5086139;22;20123;-74
2021/04/24 05:48:02;;;;;;;12.45;4.03;;;4.20;99.90;;;;;;5074691;28;20021;-74
2021/04/24 05:50:27;;;;;;;17.17;4.53;;;4.20;99.90;;;;;;5091450;28;20016;-74
2021/04/24 05:52:53;;;;;;;12.13;3.83;;;4.20;99.90;;;;;;5075712;28;20017;-74
2021/04/24 05:55:19;;;;;;;13.55;3.70;;;4.30;99.90;;;;;;5075860;28;20021;-74
2021/04/24 05:57:45;;;;;;;10.27;3.83;;;4.40;99.90;;;;;;5076934;28;20024;-74
2021/04/24 06:00:14;;;;;;;15.38;5.03;;;4.60;99.90;;;;;;5076272;28;20033;-75
2021/04/24 06:02:39;;;;;;;13.80;4.47;;;4.70;99.90;;;;;;5075841;28;20474;-75
2021/04/24 06:05:07;;;;;;;11.30;3.90;;;4.90;99.90;;;;;;5075632;28;20028;-76
2021/04/24 06:07:33;;;;;;;22.05;4.97;;;5.10;99.90;;;;;;5076318;28;20090;-74
2021/04/24 06:09:59;;;;;;;12.52;4.35;;;5.30;99.90;;;;;;5075848;28;20421;-74
2021/04/24 06:12:24;;;;;;;17.60;4.68;;;5.50;99.90;;;;;;5075895;28;20366;-75
2021/04/24 06:14:50;;;;;;;13.50;5.05;;;5.70;99.90;;;;;;5075701;28;20521;-74
2021/04/24 06:17:15;;;;;;;13.18;3.75;;;6.00;99.90;;;;;;5075746;28;20021;-73
2021/04/24 06:19:41;;;;;;;14.23;3.85;;;6.20;99.90;;;;;;5075593;28;20433;-75
2021/04/24 06:22:06;;;;;;;12.25;3.63;;;6.30;99.90;;;;;;5074505;28;20075;-75
2021/04/24 06:24:32;;;;;;;12.88;3.53;;;6.50;99.90;;;;;;5074130;28;20090;-76
2021/04/24 06:27:03;;;;;;;11.15;3.67;;;6.60;99.90;;;;;;5125148;22;20585;-75
2021/04/24 06:29:32;;;;;;;12.10;3.28;;;6.70;99.90;;;;;;5092767;28;20032;-76
2021/04/24 06:31:58;;;;;;;8.75;2.95;;;6.70;99.90;;;;;;5098199;28;20020;-75
2021/04/24 06:34:24;;;;;;;13.25;3.10;;;6.80;99.90;;;;;;5098455;28;20015;-74
2021/04/24 06:36:49;;;;;;;9.55;2.30;;;6.90;99.90;;;;;;5116185;28;20035;-76
2021/04/24 06:39:20;;;;;;;9.50;2.53;;;7.00;99.90;;;;;;5116088;28;20027;-76
2021/04/24 06:41:46;;;;;;;11.85;2.83;;;9.10;99.90;;;;;;5098738;28;20532;-73
2021/04/24 06:44:16;;;;;;;9.80;2.72;;;7.30;99.90;;;;;;5147329;22;20031;-74
2021/04/24 06:46:42;;;;;;;10.52;3.22;;;7.40;99.90;;;;;;5075575;28;20388;-74
2021/04/24 06:49:07;;;;;;;7.80;2.47;;;7.40;99.90;;;;;;5075328;28;20020;-75
2021/04/24 06:51:35;;;;;;;14.45;2.35;;;7.60;99.90;;;;;;5057272;28;20029;-75
2021/04/24 06:54:01;;;;;;;9.23;2.27;;;7.70;99.90;;;;;;5056858;28;20067;-74
2021/04/24 06:56:26;;;;;;;8.82;2.05;;;7.90;99.90;;;;;;5075437;28;20762;-75
2021/04/24 06:58:52;;;;;;;7.60;2.05;;;8.10;99.90;;;;;;5056881;28;20115;-75
2021/04/24 07:01:17;;;;;;;5.85;1.95;;;8.30;99.90;;;;;;5074658;28;20096;-75
2021/04/24 07:03:43;;;;;;;10.18;2.30;;;8.40;99.90;;;;;;5074035;28;20013;-75
2021/04/24 07:06:09;;;;;;;10.35;2.03;;;8.40;99.90;;;;;;5074276;28;20036;-74
2021/04/24 07:08:34;;;;;;;8.63;1.98;;;8.50;99.90;;;;;;5089892;28;20112;-74
2021/04/24 07:11:00;;;;;;;10.50;2.25;;;8.50;99.90;;;;;;5074020;28;20056;-75
2021/04/24 07:13:25;;;;;;;6.47;1.80;;;8.60;99.90;;;;;;5074121;28;20095;-75
2021/04/24 07:15:52;;;;;;;9.82;2.03;;;8.60;99.90;;;;;;5073819;28;20025;-75
2021/04/24 07:18:17;;;;;;;4.55;1.80;;;8.70;99.90;;;;;;5055993;28;20546;-75
2021/04/24 07:20:43;;;;;;;6.47;2.10;;;8.70;99.90;;;;;;5056191;28;20032;-75
2021/04/24 07:23:09;;;;;;;8.65;2.97;;;8.80;99.90;;;;;;5074371;28;20020;-75
2021/04/24 07:25:34;;;;;;;7.00;1.40;;;8.90;99.90;;;;;;5055947;28;20069;-75
2021/04/24 07:28:00;;;;;;;7.38;1.48;;;9.10;99.90;;;;;;5073741;28;20021;-75
2021/04/24 07:30:26;;;;;;;4.53;1.58;;;9.20;99.90;;;;;;5074049;28;20025;-75
2021/04/24 07:32:52;;;;;;;7.82;1.10;;;9.40;99.90;;;;;;5055365;28;20103;-75
2021/04/24 07:35:18;;;;;;;3.70;1.10;;;9.50;99.90;;;;;;5056132;28;20554;-74
2021/04/24 07:37:44;;;;;;;4.45;0.55;;;9.60;99.90;;;;;;5055823;28;20044;-73
2021/04/24 07:40:11;;;;;;;3.63;0.52;;;9.70;98.10;;;;;;5073531;28;20078;-73
2021/04/24 07:42:36;;;;;;;6.15;0.90;;;9.70;96.40;;;;;;5073760;28;20029;-73
2021/04/24 07:45:04;;;;;;;2.28;1.00;;;9.80;93.60;;;;;;5073841;28;20115;-73
2021/04/24 07:47:30;;;;;;;4.00;0.50;;;9.90;93.10;;;;;;5073510;28;20032;-73
2021/04/24 07:49:55;;;;;;;1.80;0.47;;;9.90;90.10;;;;;;5073931;28;20377;-73
2021/04/24 07:52:24;;;;;;;5.70;0.77;;;10.10;90.30;;;;;;5086332;23;20048;-74
2021/04/24 07:54:49;;;;;;;3.10;1.05;;;10.20;86.70;;;;;;5074152;28;20036;-74
2021/04/24 07:57:16;;;;;;;1.58;0.57;;;10.40;86.50;;;;;;5074339;28;20473;-75
2021/04/24 07:59:45;;;;;;;3.33;0.47;;;10.50;85.40;;;;;;5056283;28;20017;-74
2021/04/24 08:02:13;;;;;;;1.75;0.15;;;10.60;79.60;;;;;;5055426;28;20489;-74
2021/04/24 08:04:40;;;;;;;2.47;0.20;;;10.70;76.10;;;;;;5056471;28;20489;-74
2021/04/24 08:07:07;;;;;;;3.33;0.30;;;10.80;76.20;;;;;;5073763;28;20445;-73
2021/04/24 08:09:33;;;;;;;0.85;0.20;;;10.90;76.10;;;;;;5064682;28;20013;-76
2021/04/24 08:11:59;;;;;;;0.88;0.17;;;10.90;73.00;;;;;;5053721;28;20027;-75
2021/04/24 08:14:24;;;;;;;3.53;0.50;;;10.90;74.60;;;;;;5053430;28;20385;-75
2021/04/24 08:16:50;;;;;;;0.95;0.10;;;10.90;75.70;;;;;;5053732;28;20032;-74
2021/04/24 08:19:16;;;;;;;2.88;0.30;;;10.90;73.00;;;;;;5068726;28;20462;-74
2021/04/24 08:21:43;;;;;;;3.38;0.20;;;11.00;71.80;;;;;;5055298;28;20587;-76
2021/04/24 08:24:10;;;;;;;2.83;0.50;;;11.20;70.10;;;;;;5056257;28;20049;-76
2021/04/24 08:26:35;;;;;;;5.55;1.25;;;11.20;71.80;;;;;;5079698;23;20367;-76
2021/04/24 08:29:05;;;;;;;4.00;1.02;;;11.30;72.50;;;;;;5073655;28;20082;-76
2021/04/24 08:31:30;;;;;;;3.88;0.45;;;11.40;75.20;;;;;;5052452;28;20032;-73
2021/04/24 08:33:56;;;;;;;1.67;0.40;;;11.50;73.20;;;;;;5072879;28;20100;-74
2021/04/24 08:36:21;;;;;;;3.15;0.40;;;11.70;71.40;;;;;;5071755;28;20031;-73
2021/04/24 08:38:47;;;;;;;3.10;0.43;;;11.80;69.70;;;;;;5074915;28;20024;-74
2021/04/24 08:41:12;;;;;;;3.20;0.60;;;11.90;67.10;;;;;;5077533;28;20439;-75
2021/04/24 08:43:40;;;;;;;12.13;0.55;;;11.90;67.10;;;;;;5114555;22;20040;-74
2021/04/24 08:46:07;;;;;;;1.42;0.20;;;12.00;67.40;;;;;;5079896;28;20024;-73
2021/04/24 08:48:34;;;;;;;4.38;0.52;;;12.00;64.60;;;;;;5070975;28;20105;-73
2021/04/24 08:51:00;;;;;;;2.67;0.28;;;12.00;64.30;;;;;;5077519;28;20165;-74
2021/04/24 08:53:29;;;;;;;2.13;0.30;;;11.80;62.30;;;;;;5059359;28;20047;-76
2021/04/24 08:55:54;;;;;;;2.00;0.22;;;12.00;63.70;;;;;;5076718;28;20149;-75
2021/04/24 08:58:20;;;;;;;5.70;1.05;;;11.80;63.30;;;;;;5058587;28;20086;-75
2021/04/24 09:00:49;;;;;;;7.28;0.70;;;11.80;64.10;;;;;;5076521;28;20416;-74
2021/04/24 09:03:19;;;;;;;2.85;0.52;;;11.80;63.40;;;;;;5076349;28;20032;-74
2021/04/24 09:05:45;;;;;;;7.35;0.40;;;11.90;63.40;;;;;;5058438;28;20074;-75
2021/04/24 09:08:11;;;;;;;5.43;0.20;;;12.00;63.40;;;;;;5058043;28;20020;-75
2021/04/24 09:10:43;;;;;;;2.22;0.30;;;12.10;63.20;;;;;;5076557;28;20029;-76
2021/04/24 09:13:18;;;;;;;5.13;0.40;;;12.20;63.60;;;;;;5058427;28;20059;-76
2021/04/24 09:15:44;;;;;;;0.80;0.10;;;12.20;63.50;;;;;;5059217;28;20021;-74
2021/04/24 09:18:12;;;;;;;1.40;0.17;;;12.40;61.90;;;;;;5093171;28;20032;-74
2021/04/24 09:20:53;;;;;;;3.67;0.30;;;12.40;59.20;;;;;;5077935;28;20029;-73
2021/04/24 09:23:40;;;;;;;0.93;0.30;;;12.50;59.80;;;;;;5075935;28;20028;-75
2021/04/24 09:26:10;;;;;;;2.47;0.10;;;12.50;59.50;;;;;;5058235;28;20040;-74
2021/04/24 09:28:39;;;;;;;1.83;0.20;;;12.60;60.50;;;;;;5075679;28;20028;-74
2021/04/24 09:31:18;;;;;;;1.25;0.28;;;12.80;60.20;;;;;;5081483;28;20073;-74
2021/04/24 09:33:46;;;;;;;1.48;0.32;;;12.90;60.50;;;;;;5059079;28;20021;-76
2021/04/24 09:36:15;;;;;;;3.80;0.17;;;13.00;57.50;;;;;;5065734;28;20473;-76
2021/04/24 09:38:42;;;;;;;;;;;13.00;58.00;;;;;;5080226;28;20489;-73
2021/04/24 09:41:13;;;;;;;3.40;0.40;;;13.00;58.30;;;;;;5095905;28;19904;-73
2021/04/24 09:43:57;;;;;;;1.60;0.20;;;13.10;57.70;;;;;;5068460;28;20112;-73
2021/04/24 09:46:26;;;;;;;2.28;0.52;;;13.10;58.50;;;;;;5054654;28;20044;-76
2021/04/24 09:49:15;;;;;;;1.48;0.40;;;13.20;59.80;;;;;;5054624;28;20057;-74
2021/04/24 09:51:49;;;;;;;0.50;0.10;;;13.30;59.00;;;;;;5055928;28;20414;-73
2021/04/24 09:54:16;;;;;;;6.43;0.57;;;13.50;56.90;;;;;;5037886;28;20513;-73
2021/04/24 09:56:54;;;;;;;2.45;0.45;;;13.60;56.70;;;;;;5055734;28;20519;-74
2021/04/24 09:59:20;;;;;;;1.77;0.20;;;13.70;56.50;;;;;;5056062;28;20021;-73
2021/04/24 10:01:46;;;;;;;4.85;0.68;;;13.90;56.90;;;;;;5037738;28;20540;-75
2021/04/24 10:04:12;;;;;;;0.85;0.20;;;14.00;55.80;;;;;;5049783;23;20577;-73
2021/04/24 10:06:43;;;;;;;5.20;1.25;;;14.20;56.20;;;;;;5054992;28;20060;-73
2021/04/24 10:09:24;;;;;;;1.67;0.10;;;14.10;55.40;;;;;;5055172;28;20032;-73
2021/04/24 10:12:11;;;;;;;3.90;0.73;;;15.20;55.70;;;;;;5055146;28;20025;-75
2021/04/24 10:14:44;;;;;;;2.45;0.65;;;14.30;57.00;;;;;;5054878;28;20052;-74
2021/04/24 10:17:13;;;;;;;2.30;0.38;;;14.50;55.90;;;;;;5055161;28;20029;-73
2021/04/24 10:19:41;;;;;;;2.38;0.25;;;14.60;53.60;;;;;;5055265;28;20060;-73
2021/04/24 10:22:13;;;;;;;4.30;0.82;;;14.80;53.40;;;;;;5036138;28;20115;-73
2021/04/24 10:24:39;;;;;;;2.53;0.32;;;15.00;52.80;;;;;;5055155;28;20036;-75
2021/04/24 10:27:06;;;;;;;2.08;0.65;;;15.20;52.40;;;;;;5054465;28;20032;-76
2021/04/24 10:29:32;;;;;;;1.35;0.30;;;15.50;51.00;;;;;;5036970;28;20043;-74
2021/04/24 10:31:59;;;;;;;2.67;0.90;;;15.60;48.00;;;;;;5036764;28;20031;-74
2021/04/24 10:34:25;;;;;;;0.90;0.25;;;15.60;48.80;;;;;;5054840;28;20482;-74
2021/04/24 10:36:51;;;;;;;1.65;0.20;;;15.50;49.90;;;;;;5054534;28;20104;-74
2021/04/24 10:39:28;;;;;;;1.95;0.47;;;15.50;48.00;;;;;;5054485;28;20104;-73
2021/04/24 10:41:54;;;;;;;3.30;0.40;;;15.40;49.10;;;;;;5036769;28;20025;-77
2021/04/24 10:44:21;;;;;;;2.80;0.65;;;15.30;49.10;;;;;;5103762;22;20108;-76
2021/04/24 10:46:52;;;;;;;2.03;0.20;;;15.20;48.10;;;;;;5094152;28;20085;-74
2021/04/24 10:49:20;;;;;;;2.95;0.40;;;15.20;48.20;;;;;;5094957;28;20024;-73
2021/04/24 10:52:07;;;;;;;0.95;0.50;;;15.20;48.70;;;;;;5089476;22;20072;-73
2021/04/24 10:54:39;;;;;;;1.20;0.45;;;15.80;49.40;;;;;;5064123;28;20493;-73
2021/04/24 10:57:38;;;;;;;6.85;0.40;;;15.30;50.40;;;;;;5076494;28;20020;-75
2021/04/24 11:00:17;;;;;;;2.10;0.43;;;15.20;51.50;;;;;;5073492;28;20027;-73
2021/04/24 11:02:42;;;;;;;2.20;0.30;;;15.30;51.40;;;;;;5060163;28;20493;-73
2021/04/24 11:05:33;;;;;;;2.63;0.30;;;15.40;51.80;;;;;;5036452;28;20061;-75
2021/04/24 11:08:07;;;;;;;3.25;0.20;;;15.40;50.30;;;;;;5053484;28;20514;-75
2021/04/24 11:10:42;;;;;;;1.42;0.30;;;15.40;50.20;;;;;;5053935;28;20021;-76
2021/04/24 11:13:10;;;;;;;1.42;0.45;;;15.30;51.40;;;;;;5054218;28;20029;-75
2021/04/24 11:15:36;;;;;;;2.80;0.52;;;15.40;52.20;;;;;;5057050;28;20388;-74
2021/04/24 11:18:04;;;;;;;3.55;0.82;;;15.40;50.90;;;;;;5099054;22;20082;-73
2021/04/24 11:20:53;;;;;;;2.35;0.63;;;15.50;49.50;;;;;;5093744;28;20017;-74
2021/04/24 11:23:45;;;;;;;2.60;0.45;;;15.50;51.90;;;;;;5074732;28;20073;-73
2021/04/24 11:26:20;;;;;;;2.53;0.47;;;15.80;52.20;;;;;;5083507;28;20028;-74
2021/04/24 11:29:15;;;;;;;1.65;0.63;;;16.20;51.00;;;;;;5094035;28;20110;-76
2021/04/24 11:31:59;;;;;;;3.50;0.57;;;16.60;48.50;;;;;;5075734;28;20020;-74
2021/04/24 11:34:28;;;;;;;3.58;0.65;;;16.90;48.60;;;;;;5093768;28;20524;-73
2021/04/24 11:37:15;;;;;;;4.75;0.77;;;17.00;49.00;;;;;;5093667;28;20060;-74
2021/04/24 11:40:19;;;;;;;3.15;1.10;;;16.70;47.40;;;;;;5075836;28;20047;-75
2021/04/24 11:42:48;;;;;;;3.45;0.95;;;16.50;49.90;;;;;;5094497;28;20032;-75
2021/04/24 11:45:15;;;;;;;5.28;0.77;;;16.50;50.90;;;;;;5093996;28;20028;-73
2021/04/24 11:47:43;;;;;;;6.03;1.05;;;16.30;49.80;;;;;;5093755;28;20399;-74
2021/04/24 11:50:18;;;;;;;5.50;1.35;;;16.20;50.60;;;;;;5093566;28;20020;-73
2021/04/24 11:52:57;;;;;;;4.28;1.42;;;16.00;52.50;;;;;;5075342;28;20024;-75
2021/04/24 11:55:25;;;;;;;3.50;1.33;;;15.90;53.60;;;;;;5075361;28;20027;-76
2021/04/24 11:58:02;;;;;;;3.13;0.93;;;15.80;51.60;;;;;;5093716;28;20020;-76
2021/04/24 12:00:30;;;;;;;4.28;0.80;;;15.70;51.70;;;;;;5093342;28;20262;-72
2021/04/24 12:02:55;;;;;;;4.15;1.52;;;15.40;54.00;;;;;;5094216;28;20024;-73
2021/04/24 12:05:22;;;;;;;2.55;0.80;;;15.40;54.00;;;;;;5093851;28;20028;-75
2021/04/24 12:07:48;;;;;;;5.13;1.23;;;15.40;54.30;;;;;;5106548;22;20051;-75
2021/04/24 12:10:15;;;;;;;4.55;1.25;;;15.00;54.00;;;;;;5078260;28;20024;-75
2021/04/24 12:12:46;;;;;;;3.72;1.38;;;14.80;55.90;;;;;;5076090;28;20013;-75
2021/04/24 12:15:19;;;;;;;5.20;1.13;;;14.80;57.10;;;;;;5059308;28;20162;-72
2021/04/24 12:17:54;;;;;;;6.15;1.25;;;14.90;56.20;;;;;;5059001;28;20054;-73
2021/04/24 12:20:30;;;;;;;6.97;1.67;;;15.00;55.40;;;;;;5079318;28;20028;-72
2021/04/24 12:23:00;;;;;;;5.05;1.13;;;14.80;56.60;;;;;;5102866;22;20397;-73
2021/04/24 12:25:28;;;;;;;3.50;0.82;;;14.70;56.80;;;;;;5060094;28;20078;-73
2021/04/24 12:27:55;;;;;;;7.03;1.90;;;14.70;56.10;;;;;;5059081;28;20097;-74
2021/04/24 12:30:26;;;;;;;2.47;0.82;;;14.70;56.20;;;;;;5076829;28;20025;-74
2021/04/24 12:33:11;;;;;;;5.82;0.98;;;14.60;56.70;;;;;;5077018;28;20017;-76
2021/04/24 12:36:06;;;;;;;4.05;1.30;;;14.80;57.10;;;;;;5076426;28;20497;-76
2021/04/24 12:38:32;;;;;;;4.22;1.13;;;15.00;56.60;;;;;;5038022;28;20029;-73
2021/04/24 12:41:02;;;;;;;5.90;1.55;;;15.20;56.50;;;;;;5077070;28;20095;-74
2021/04/24 12:43:46;;;;;;;4.00;1.08;;;15.50;56.60;;;;;;5058701;28;20028;-72
2021/04/24 12:46:12;;;;;;;6.22;1.38;;;15.60;53.90;;;;;;5077016;28;20100;-74
2021/04/24 12:48:48;;;;;;;3.05;1.15;;;15.80;54.40;;;;;;5076235;28;20107;-75
2021/04/24 12:51:15;;;;;;;3.50;1.02;;;15.80;53.60;;;;;;5076241;22;20040;-73
2021/04/24 12:53:44;;;;;;;2.63;0.60;;;15.70;53.60;;;;;;5076413;28;20377;-73
2021/04/24 12:56:20;;;;;;;10.10;1.27;;;15.80;52.90;;;;;;5075046;28;20556;-75
2021/04/24 12:58:54;;;;;;;5.55;1.70;;;16.00;53.50;;;;;;5077179;28;20055;-75
2021/04/24 13:01:28;;;;;;;4.78;1.15;;;16.20;53.70;;;;;;5088829;22;20048;-76
2021/04/24 13:03:58;;;;;;;7.32;1.63;;;16.40;50.90;;;;;;5076063;28;20075;-75
2021/04/24 13:06:26;;;;;;;3.08;1.20;;;16.40;52.60;;;;;;5074695;28;20028;-73